North Chatham, Massachusetts
Current Conditions -  °F | °C
As of 4:38 AM on Saturday 25 Oct 2014 (Local Time) from KCQX Reporting Station
Broken Clouds Broken Clouds  
Wind Chill: 46°   Ceiling: 4400
Heat Index: 48°   Visibility: 10mi
Dew Point: 45°   Wind: 5mph
Humidity: 89%   Direction: NA
Pressure: 29.74"   Gusts: NA
Location:  41.7°N, 69.95°W
Report Text: KCQX 250838Z AUTO VRB04KT 10SM SCT015 BKN044 09/07 A2974 RMK AO2 T00890072
Loading
Personal Weather Stations






























Interactive Weather Map
Tropical Storm Tracking
New forecast layout! Learn more

10-Day Weather Forecast

Advertisements
Track Severe Weather on mobile